Map

Track Data

SID SEASON NUMBER BASIN SUBBASIN NAME ISO_TIME NATURE LAT LON WMO_WIND WMO_PRES WMO_AGENCY TRACK_TYPE DIST2LAND LANDFALL IFLAG USA_AGENCY USA_ATCF_ID USA_LAT USA_LON USA_RECORD USA_STATUS USA_WIND USA_PRES USA_SSHS USA_R34_NE USA_R34_SE USA_R34_SW USA_R34_NW USA_R50_NE USA_R50_SE USA_R50_SW USA_R50_NW USA_R64_NE USA_R64_SE USA_R64_SW USA_R64_NW USA_POCI USA_ROCI USA_RMW USA_EYE TOKYO_LAT TOKYO_LON TOKYO_GRADE TOKYO_WIND TOKYO_PRES TOKYO_R50_DIR TOKYO_R50_LONG TOKYO_R50_SHORT TOKYO_R30_DIR TOKYO_R30_LONG TOKYO_R30_SHORT TOKYO_LAND CMA_LAT CMA_LON CMA_CAT CMA_WIND CMA_PRES HKO_LAT HKO_LON HKO_CAT HKO_WIND HKO_PRES NEWDELHI_LAT NEWDELHI_LON NEWDELHI_GRADE NEWDELHI_WIND NEWDELHI_PRES NEWDELHI_CI NEWDELHI_DP NEWDELHI_POCI REUNION_LAT REUNION_LON REUNION_TYPE REUNION_WIND REUNION_PRES REUNION_TNUM REUNION_CI REUNION_RMW REUNION_R34_NE REUNION_R34_SE REUNION_R34_SW REUNION_R34_NW REUNION_R50_NE REUNION_R50_SE REUNION_R50_SW REUNION_R50_NW REUNION_R64_NE REUNION_R64_SE REUNION_R64_SW REUNION_R64_NW BOM_LAT BOM_LON BOM_TYPE BOM_WIND BOM_PRES BOM_TNUM BOM_CI BOM_RMW BOM_R34_NE BOM_R34_SE BOM_R34_SW BOM_R34_NW BOM_R50_NE BOM_R50_SE BOM_R50_SW BOM_R50_NW BOM_R64_NE BOM_R64_SE BOM_R64_SW BOM_R64_NW BOM_ROCI BOM_POCI BOM_EYE BOM_POS_METHOD BOM_PRES_METHOD NADI_LAT NADI_LON NADI_CAT NADI_WIND NADI_PRES WELLINGTON_LAT WELLINGTON_LON WELLINGTON_WIND WELLINGTON_PRES DS824_LAT DS824_LON DS824_STAGE DS824_WIND DS824_PRES TD9636_LAT TD9636_LON TD9636_STAGE TD9636_WIND TD9636_PRES TD9635_LAT TD9635_LON TD9635_WIND TD9635_PRES TD9635_ROCI NEUMANN_LAT NEUMANN_LON NEUMANN_CLASS NEUMANN_WIND NEUMANN_PRES MLC_LAT MLC_LON MLC_CLASS MLC_WIND MLC_PRES USA_GUST BOM_GUST BOM_GUST_PER REUNION_GUST REUNION_GUST_PER USA_SEAHGT USA_SEARAD_NE USA_SEARAD_SE USA_SEARAD_SW USA_SEARAD_NW STORM_SPEED STORM_DIR
1945032S27115 1945 10 SI WA NOT_NAMED 1945-02-01 06:00:00 NR -27.0000 115.000 main 0 0 _____O________ -1 -27.0000 115.000 99 9.90000 5 241
1945032S27115 1945 10 SI WA NOT_NAMED 1945-02-01 09:00:00 NR -27.1178 114.764 main 0 0 _____P________ -1 -27.1178 114.764 99 5 240
1945032S27115 1945 10 SI WA NOT_NAMED 1945-02-01 12:00:00 NR -27.2443 114.533 main 0 0 _____P________ -1 -27.2443 114.533 99 5 236
1945032S27115 1945 10 SI WA NOT_NAMED 1945-02-01 15:00:00 NR -27.3886 114.311 main 0 0 _____P________ -1 -27.3886 114.311 99 5 230
1945032S27115 1945 10 SI WA NOT_NAMED 1945-02-01 18:00:00 NR -27.5600 114.103 main 9 9 _____P________ -1 -27.5600 114.103 99 5 223
1945032S27115 1945 10 SI WA NOT_NAMED 1945-02-01 21:00:00 NR -27.7675 113.913 main 19 19 _____P________ -1 -27.7675 113.913 99 6 215
1945032S27115 1945 10 SI WA NOT_NAMED 1945-02-02 00:00:00 NR -28.0205 113.746 main 45 45 _____P________ -1 -28.0205 113.746 99 6 206
1945032S27115 1945 10 SI WA NOT_NAMED 1945-02-02 03:00:00 NR -28.3283 113.607 main 62 62 _____P________ -1 -28.3283 113.607 99 7 198
1945032S27115 1945 10 SI WA NOT_NAMED 1945-02-02 06:00:00 NR -28.7000 113.500 main 95 95 _____O________ -1 -28.7000 113.500 99 9.90000 8 191
1945032S27115 1945 10 SI WA NOT_NAMED 1945-02-02 09:00:00 NR -29.1404 113.429 main 121 121 _____P________ -1 -29.1404 113.429 99 9 186
1945032S27115 1945 10 SI WA NOT_NAMED 1945-02-02 12:00:00 NR -29.6355 113.389 main 146 146 _____P________ -1 -29.6355 113.389 99 10 182
1945032S27115 1945 10 SI WA NOT_NAMED 1945-02-02 15:00:00 NR -30.1664 113.376 main 155 155 _____P________ -1 -30.1664 113.376 99 11 181
1945032S27115 1945 10 SI WA NOT_NAMED 1945-02-02 18:00:00 NR -30.7144 113.383 main 163 163 _____P________ -1 -30.7144 113.383 99 11 179
1945032S27115 1945 10 SI WA NOT_NAMED 1945-02-02 21:00:00 NR -31.2606 113.405 main 183 183 _____P________ -1 -31.2606 113.405 99 11 178
1945032S27115 1945 10 SI WA NOT_NAMED 1945-02-03 00:00:00 NR -31.7861 113.436 main 204 204 _____P________ -1 -31.7861 113.436 99 10 177
1945032S27115 1945 10 SI WA NOT_NAMED 1945-02-03 03:00:00 NR -32.2722 113.470 main 201 171 _____P________ -1 -32.2722 113.470 99 9 176
1945032S27115 1945 10 SI WA NOT_NAMED 1945-02-03 06:00:00 NR -32.7000 113.500 main 171 154 _____O________ -1 -32.7000 113.500 99 9.90000 8 177
1945032S27115 1945 10 SI WA NOT_NAMED 1945-02-03 09:00:00 NR -33.0556 113.522 main 149 142 _____P________ -1 -33.0556 113.522 99 6 176
1945032S27115 1945 10 SI WA NOT_NAMED 1945-02-03 12:00:00 NR -33.3438 113.535 main 142 138 _____P________ -1 -33.3438 113.535 99 5 0
1945032S27115 1945 10 SI WA NOT_NAMED 1945-02-03 15:00:00 NR -33.5745 113.541 main 138 138 _____P________ -1 -33.5745 113.541 99 4 0
1945032S27115 1945 10 SI WA NOT_NAMED 1945-02-03 18:00:00 NR -33.7571 113.540 main 138 138 _____P________ -1 -33.7571 113.540 99 3 0
1945032S27115 1945 10 SI WA NOT_NAMED 1945-02-03 21:00:00 NR -33.9014 113.535 main 138 137 _____P________ -1 -33.9014 113.535 99 3 0
1945032S27115 1945 10 SI WA NOT_NAMED 1945-02-04 00:00:00 NR -34.0169 113.525 main 137 137 _____P________ -1 -34.0169 113.525 99 2 186
1945032S27115 1945 10 SI WA NOT_NAMED 1945-02-04 03:00:00 NR -34.1132 113.513 main 137 137 _____P________ -1 -34.1132 113.513 99 2 0
1945032S27115 1945 10 SI WA NOT_NAMED 1945-02-04 06:00:00 NR -34.2000 113.500 main 138 _____O________ -1 -34.2000 113.500 99 9.90000 2 191

About IBTrACS Database

This database is a web-friendly format of International Best Track Archive for Climate Stewardship (IBTrACS), a global best track data archive curated by NOAA dating back to 1842.

Updated: 2021-12-03